sensor_id;sensor_type;location;lat;lon;timestamp;temperature;humidity
66144;SHT31;52947;50.842;6.084;2022-09-20T00:01:05;11.72;84.97
66144;SHT31;52947;50.842;6.084;2022-09-20T00:03:34;11.68;85.33
66144;SHT31;52947;50.842;6.084;2022-09-20T00:06:04;11.71;85.27
66144;SHT31;52947;50.842;6.084;2022-09-20T00:08:32;11.71;85.40
66144;SHT31;52947;50.842;6.084;2022-09-20T00:11:02;11.72;85.34
66144;SHT31;52947;50.842;6.084;2022-09-20T00:13:30;11.71;85.61
66144;SHT31;52947;50.842;6.084;2022-09-20T00:15:58;11.71;85.58
66144;SHT31;52947;50.842;6.084;2022-09-20T00:18:26;11.75;85.71
66144;SHT31;52947;50.842;6.084;2022-09-20T00:20:53;11.71;85.71
66144;SHT31;52947;50.842;6.084;2022-09-20T00:23:21;11.71;85.85
66144;SHT31;52947;50.842;6.084;2022-09-20T00:25:54;11.69;85.81
66144;SHT31;52947;50.842;6.084;2022-09-20T00:28:24;11.65;85.97
66144;SHT31;52947;50.842;6.084;2022-09-20T00:30:53;11.62;85.81
66144;SHT31;52947;50.842;6.084;2022-09-20T00:33:23;11.61;85.61
66144;SHT31;52947;50.842;6.084;2022-09-20T00:35:51;11.57;85.79
66144;SHT31;52947;50.842;6.084;2022-09-20T00:38:18;11.52;86.13
66144;SHT31;52947;50.842;6.084;2022-09-20T00:40:46;11.57;86.23
66144;SHT31;52947;50.842;6.084;2022-09-20T00:43:14;11.58;86.08
66144;SHT31;52947;50.842;6.084;2022-09-20T00:45:45;11.58;86.07
66144;SHT31;52947;50.842;6.084;2022-09-20T00:48:21;11.62;85.86
66144;SHT31;52947;50.842;6.084;2022-09-20T00:50:54;11.58;86.02
66144;SHT31;52947;50.842;6.084;2022-09-20T00:53:27;11.55;85.96
66144;SHT31;52947;50.842;6.084;2022-09-20T00:56:03;11.51;86.01
66144;SHT31;52947;50.842;6.084;2022-09-20T00:58:34;11.58;85.97
66144;SHT31;52947;50.842;6.084;2022-09-20T01:01:04;11.52;86.11
66144;SHT31;52947;50.842;6.084;2022-09-20T01:03:34;11.57;86.09
66144;SHT31;52947;50.842;6.084;2022-09-20T01:06:07;11.57;85.97
66144;SHT31;52947;50.842;6.084;2022-09-20T01:08:37;11.52;86.04
66144;SHT31;52947;50.842;6.084;2022-09-20T01:11:05;11.51;86.08
66144;SHT31;52947;50.842;6.084;2022-09-20T01:13:33;11.55;86.17
66144;SHT31;52947;50.842;6.084;2022-09-20T01:16:02;11.55;85.92
66144;SHT31;52947;50.842;6.084;2022-09-20T01:18:32;11.52;86.20
66144;SHT31;52947;50.842;6.084;2022-09-20T01:21:02;11.49;86.33
66144;SHT31;52947;50.842;6.084;2022-09-20T01:23:40;11.43;86.45
66144;SHT31;52947;50.842;6.084;2022-09-20T01:26:41;11.39;86.36
66144;SHT31;52947;50.842;6.084;2022-09-20T01:29:21;11.28;86.73
66144;SHT31;52947;50.842;6.084;2022-09-20T01:31:54;11.27;86.88
66144;SHT31;52947;50.842;6.084;2022-09-20T01:34:28;11.22;86.89
66144;SHT31;52947;50.842;6.084;2022-09-20T01:37:05;11.18;87.26
66144;SHT31;52947;50.842;6.084;2022-09-20T01:39:41;11.17;87.55
66144;SHT31;52947;50.842;6.084;2022-09-20T01:42:14;11.17;87.58
66144;SHT31;52947;50.842;6.084;2022-09-20T01:44:50;11.17;87.27
66144;SHT31;52947;50.842;6.084;2022-09-20T01:47:30;11.17;87.64
66144;SHT31;52947;50.842;6.084;2022-09-20T01:50:06;11.12;87.78
66144;SHT31;52947;50.842;6.084;2022-09-20T01:56:19;11.06;88.05
66144;SHT31;52947;50.842;6.084;2022-09-20T02:02:08;11.17;87.28
66144;SHT31;52947;50.842;6.084;2022-09-20T02:05:06;11.22;87.57
66144;SHT31;52947;50.842;6.084;2022-09-20T02:07:52;11.22;87.55
66144;SHT31;52947;50.842;6.084;2022-09-20T02:10:37;11.10;88.30
66144;SHT31;52947;50.842;6.084;2022-09-20T02:13:09;11.11;88.32
66144;SHT31;52947;50.842;6.084;2022-09-20T02:16:03;11.14;88.38
66144;SHT31;52947;50.842;6.084;2022-09-20T02:18:46;11.18;88.36
66144;SHT31;52947;50.842;6.084;2022-09-20T02:21:27;11.20;88.46
66144;SHT31;52947;50.842;6.084;2022-09-20T02:24:02;11.15;88.47
66144;SHT31;52947;50.842;6.084;2022-09-20T02:26:39;11.10;88.59
66144;SHT31;52947;50.842;6.084;2022-09-20T02:29:20;11.01;88.91
66144;SHT31;52947;50.842;6.084;2022-09-20T02:32:03;10.91;89.38
66144;SHT31;52947;50.842;6.084;2022-09-20T02:34:54;10.91;89.47
66144;SHT31;52947;50.842;6.084;2022-09-20T02:37:56;10.94;89.57
66144;SHT31;52947;50.842;6.084;2022-09-20T02:40:39;11.06;89.15
66144;SHT31;52947;50.842;6.084;2022-09-20T02:43:19;11.10;89.24
66144;SHT31;52947;50.842;6.084;2022-09-20T02:45:59;11.11;88.87
66144;SHT31;52947;50.842;6.084;2022-09-20T02:48:35;11.10;89.09
66144;SHT31;52947;50.842;6.084;2022-09-20T02:51:15;11.07;89.19
66144;SHT31;52947;50.842;6.084;2022-09-20T02:53:50;11.10;89.25
66144;SHT31;52947;50.842;6.084;2022-09-20T02:56:27;11.11;89.16
66144;SHT31;52947;50.842;6.084;2022-09-20T02:59:02;11.10;89.19
66144;SHT31;52947;50.842;6.084;2022-09-20T03:01:39;11.10;89.12
66144;SHT31;52947;50.842;6.084;2022-09-20T03:04:19;11.07;89.43
66144;SHT31;52947;50.842;6.084;2022-09-20T03:06:56;11.03;89.43
66144;SHT31;52947;50.842;6.084;2022-09-20T03:09:30;11.03;89.46
66144;SHT31;52947;50.842;6.084;2022-09-20T03:12:09;11.06;89.32
66144;SHT31;52947;50.842;6.084;2022-09-20T03:14:40;11.08;89.45
66144;SHT31;52947;50.842;6.084;2022-09-20T03:17:17;11.15;89.23
66144;SHT31;52947;50.842;6.084;2022-09-20T03:20:03;11.11;89.38
66144;SHT31;52947;50.842;6.084;2022-09-20T03:22:43;11.03;89.53
66144;SHT31;52947;50.842;6.084;2022-09-20T03:25:40;11.04;89.59
66144;SHT31;52947;50.842;6.084;2022-09-20T03:28:19;11.03;89.65
66144;SHT31;52947;50.842;6.084;2022-09-20T03:30:55;11.01;89.80
66144;SHT31;52947;50.842;6.084;2022-09-20T03:33:32;10.96;90.08
66144;SHT31;52947;50.842;6.084;2022-09-20T03:36:13;10.96;90.10
66144;SHT31;52947;50.842;6.084;2022-09-20T03:39:01;10.97;90.00
66144;SHT31;52947;50.842;6.084;2022-09-20T03:41:42;10.90;90.15
66144;SHT31;52947;50.842;6.084;2022-09-20T03:47:27;10.96;90.02
66144;SHT31;52947;50.842;6.084;2022-09-20T03:50:18;10.89;90.26
66144;SHT31;52947;50.842;6.084;2022-09-20T03:53:16;10.85;90.56
66144;SHT31;52947;50.842;6.084;2022-09-20T03:56:07;10.89;90.61
66144;SHT31;52947;50.842;6.084;2022-09-20T03:58:52;10.89;90.66
66144;SHT31;52947;50.842;6.084;2022-09-20T04:01:33;11.04;91.63
66144;SHT31;52947;50.842;6.084;2022-09-20T04:04:11;11.24;91.59
66144;SHT31;52947;50.842;6.084;2022-09-20T04:06:51;11.43;90.79
66144;SHT31;52947;50.842;6.084;2022-09-20T04:12:25;11.71;89.38
66144;SHT31;52947;50.842;6.084;2022-09-20T04:15:04;11.82;89.02
66144;SHT31;52947;50.842;6.084;2022-09-20T04:17:41;11.93;88.38
66144;SHT31;52947;50.842;6.084;2022-09-20T04:20:16;12.03;88.56
66144;SHT31;52947;50.842;6.084;2022-09-20T04:22:49;12.07;87.94
66144;SHT31;52947;50.842;6.084;2022-09-20T04:25:21;12.07;87.93
66144;SHT31;52947;50.842;6.084;2022-09-20T04:27:55;12.10;87.67
66144;SHT31;52947;50.842;6.084;2022-09-20T04:30:25;12.24;88.11
66144;SHT31;52947;50.842;6.084;2022-09-20T04:32:59;12.20;86.33
66144;SHT31;52947;50.842;6.084;2022-09-20T04:35:35;12.20;87.56
66144;SHT31;52947;50.842;6.084;2022-09-20T04:38:23;12.10;86.58
66144;SHT31;52947;50.842;6.084;2022-09-20T04:41:10;11.94;86.30
66144;SHT31;52947;50.842;6.084;2022-09-20T04:44:09;12.16;87.91
66144;SHT31;52947;50.842;6.084;2022-09-20T04:53:20;12.14;87.85
66144;SHT31;52947;50.842;6.084;2022-09-20T04:55:51;12.04;87.42
66144;SHT31;52947;50.842;6.084;2022-09-20T04:58:34;11.97;87.29
66144;SHT31;52947;50.842;6.084;2022-09-20T05:04:47;12.27;86.25
66144;SHT31;52947;50.842;6.084;2022-09-20T05:13:43;11.97;86.97
66144;SHT31;52947;50.842;6.084;2022-09-20T05:16:20;12.10;88.58
66144;SHT31;52947;50.842;6.084;2022-09-20T05:19:15;12.09;87.11
66144;SHT31;52947;50.842;6.084;2022-09-20T05:22:05;12.19;87.75
66144;SHT31;52947;50.842;6.084;2022-09-20T05:27:39;12.26;87.54
66144;SHT31;52947;50.842;6.084;2022-09-20T05:30:27;12.20;86.96
66144;SHT31;52947;50.842;6.084;2022-09-20T05:33:06;12.14;86.54
66144;SHT31;52947;50.842;6.084;2022-09-20T05:35:42;12.13;86.84
66144;SHT31;52947;50.842;6.084;2022-09-20T05:38:21;12.22;86.94
66144;SHT31;52947;50.842;6.084;2022-09-20T05:41:04;12.19;86.72
66144;SHT31;52947;50.842;6.084;2022-09-20T05:43:36;12.06;86.60
66144;SHT31;52947;50.842;6.084;2022-09-20T05:46:15;12.20;87.24
66144;SHT31;52947;50.842;6.084;2022-09-20T05:48:52;11.96;87.39
66144;SHT31;52947;50.842;6.084;2022-09-20T05:51:31;12.09;87.09
66144;SHT31;52947;50.842;6.084;2022-09-20T05:54:23;12.24;87.55
66144;SHT31;52947;50.842;6.084;2022-09-20T05:56:59;12.23;86.00
66144;SHT31;52947;50.842;6.084;2022-09-20T05:59:44;12.07;86.69
66144;SHT31;52947;50.842;6.084;2022-09-20T06:02:29;11.85;87.65
66144;SHT31;52947;50.842;6.084;2022-09-20T06:05:03;11.81;87.70
66144;SHT31;52947;50.842;6.084;2022-09-20T06:07:47;11.69;88.04
66144;SHT31;52947;50.842;6.084;2022-09-20T06:10:44;11.66;88.45
66144;SHT31;52947;50.842;6.084;2022-09-20T06:13:26;11.82;88.84
66144;SHT31;52947;50.842;6.084;2022-09-20T06:15:59;11.86;88.15
66144;SHT31;52947;50.842;6.084;2022-09-20T06:18:31;12.06;87.70
66144;SHT31;52947;50.842;6.084;2022-09-20T06:21:08;12.30;87.59
66144;SHT31;52947;50.842;6.084;2022-09-20T06:23:40;12.61;86.60
66144;SHT31;52947;50.842;6.084;2022-09-20T06:26:14;13.05;84.99
66144;SHT31;52947;50.842;6.084;2022-09-20T06:28:46;13.62;82.26
66144;SHT31;52947;50.842;6.084;2022-09-20T06:31:16;14.26;81.10
66144;SHT31;52947;50.842;6.084;2022-09-20T06:33:47;14.75;79.08
66144;SHT31;52947;50.842;6.084;2022-09-20T06:36:21;15.16;77.01
66144;SHT31;52947;50.842;6.084;2022-09-20T06:39:15;15.37;75.69
66144;SHT31;52947;50.842;6.084;2022-09-20T06:42:03;14.97;76.72
66144;SHT31;52947;50.842;6.084;2022-09-20T06:44:32;14.44;78.19
66144;SHT31;52947;50.842;6.084;2022-09-20T06:46:59;14.14;80.15
66144;SHT31;52947;50.842;6.084;2022-09-20T06:49:27;13.66;80.62
66144;SHT31;52947;50.842;6.084;2022-09-20T06:51:55;13.30;82.32
66144;SHT31;52947;50.842;6.084;2022-09-20T06:54:23;13.05;82.51
66144;SHT31;52947;50.842;6.084;2022-09-20T06:56:52;13.04;84.14
66144;SHT31;52947;50.842;6.084;2022-09-20T06:59:22;13.11;83.61
66144;SHT31;52947;50.842;6.084;2022-09-20T07:01:49;13.36;82.87
66144;SHT31;52947;50.842;6.084;2022-09-20T07:04:17;13.56;81.99
66144;SHT31;52947;50.842;6.084;2022-09-20T07:06:45;13.56;82.39
66144;SHT31;52947;50.842;6.084;2022-09-20T07:09:13;13.59;81.51
66144;SHT31;52947;50.842;6.084;2022-09-20T07:11:41;13.54;82.00
66144;SHT31;52947;50.842;6.084;2022-09-20T07:14:11;13.59;81.42
66144;SHT31;52947;50.842;6.084;2022-09-20T07:16:42;13.87;81.52
66144;SHT31;52947;50.842;6.084;2022-09-20T07:19:10;15.07;78.02
66144;SHT31;52947;50.842;6.084;2022-09-20T07:21:38;14.76;76.71
66144;SHT31;52947;50.842;6.084;2022-09-20T07:24:06;14.82;77.11
66144;SHT31;52947;50.842;6.084;2022-09-20T07:26:34;14.66;77.90
66144;SHT31;52947;50.842;6.084;2022-09-20T07:29:02;14.69;77.59
66144;SHT31;52947;50.842;6.084;2022-09-20T07:31:32;14.79;77.81
66144;SHT31;52947;50.842;6.084;2022-09-20T07:34:01;14.79;77.57
66144;SHT31;52947;50.842;6.084;2022-09-20T07:36:29;14.89;77.48
66144;SHT31;52947;50.842;6.084;2022-09-20T07:38:57;14.87;76.80
66144;SHT31;52947;50.842;6.084;2022-09-20T07:41:24;14.96;77.75
66144;SHT31;52947;50.842;6.084;2022-09-20T07:43:56;15.02;77.52
66144;SHT31;52947;50.842;6.084;2022-09-20T07:46:44;14.92;77.90
66144;SHT31;52947;50.842;6.084;2022-09-20T07:49:14;14.85;76.94
66144;SHT31;52947;50.842;6.084;2022-09-20T07:51:42;15.16;77.21
66144;SHT31;52947;50.842;6.084;2022-09-20T07:54:10;15.16;75.81
66144;SHT31;52947;50.842;6.084;2022-09-20T07:56:39;15.40;76.28
66144;SHT31;52947;50.842;6.084;2022-09-20T07:59:07;15.46;75.34
66144;SHT31;52947;50.842;6.084;2022-09-20T08:01:36;15.28;75.70
66144;SHT31;52947;50.842;6.084;2022-09-20T08:04:04;15.54;75.63
66144;SHT31;52947;50.842;6.084;2022-09-20T08:06:36;15.72;74.86
66144;SHT31;52947;50.842;6.084;2022-09-20T08:09:04;15.64;74.10
66144;SHT31;52947;50.842;6.084;2022-09-20T08:11:36;15.62;73.25
66144;SHT31;52947;50.842;6.084;2022-09-20T08:14:05;15.81;74.01
66144;SHT31;52947;50.842;6.084;2022-09-20T08:16:37;16.16;73.05
66144;SHT31;52947;50.842;6.084;2022-09-20T08:19:05;16.81;71.81
66144;SHT31;52947;50.842;6.084;2022-09-20T08:21:35;17.07;70.07
66144;SHT31;52947;50.842;6.084;2022-09-20T08:24:05;17.21;70.10
66144;SHT31;52947;50.842;6.084;2022-09-20T08:26:33;17.12;69.31
66144;SHT31;52947;50.842;6.084;2022-09-20T08:29:03;16.98;70.41
66144;SHT31;52947;50.842;6.084;2022-09-20T08:31:34;16.57;70.80
66144;SHT31;52947;50.842;6.084;2022-09-20T08:34:04;16.74;70.28
66144;SHT31;52947;50.842;6.084;2022-09-20T08:36:34;17.07;70.56
66144;SHT31;52947;50.842;6.084;2022-09-20T08:39:04;17.35;69.64
66144;SHT31;52947;50.842;6.084;2022-09-20T08:41:54;17.45;68.73
66144;SHT31;52947;50.842;6.084;2022-09-20T08:44:26;17.61;67.56
66144;SHT31;52947;50.842;6.084;2022-09-20T08:47:04;17.92;67.77
66144;SHT31;52947;50.842;6.084;2022-09-20T08:49:33;18.36;66.61
66144;SHT31;52947;50.842;6.084;2022-09-20T08:52:02;18.37;66.30
66144;SHT31;52947;50.842;6.084;2022-09-20T08:54:37;18.21;67.08
66144;SHT31;52947;50.842;6.084;2022-09-20T08:57:09;17.70;66.93
66144;SHT31;52947;50.842;6.084;2022-09-20T08:59:39;17.38;65.90
66144;SHT31;52947;50.842;6.084;2022-09-20T09:02:13;17.31;68.24
66144;SHT31;52947;50.842;6.084;2022-09-20T09:04:42;17.27;68.96
66144;SHT31;52947;50.842;6.084;2022-09-20T09:07:11;17.17;68.91
66144;SHT31;52947;50.842;6.084;2022-09-20T09:09:43;17.04;68.92
66144;SHT31;52947;50.842;6.084;2022-09-20T09:12:19;17.04;69.46
66144;SHT31;52947;50.842;6.084;2022-09-20T09:14:48;16.70;69.82
66144;SHT31;52947;50.842;6.084;2022-09-20T09:17:22;16.61;69.88
66144;SHT31;52947;50.842;6.084;2022-09-20T09:19:55;16.50;70.48
66144;SHT31;52947;50.842;6.084;2022-09-20T09:22:27;16.69;69.89
66144;SHT31;52947;50.842;6.084;2022-09-20T09:25:25;16.80;69.50
66144;SHT31;52947;50.842;6.084;2022-09-20T09:28:00;16.61;69.68
66144;SHT31;52947;50.842;6.084;2022-09-20T09:30:30;16.71;69.64
66144;SHT31;52947;50.842;6.084;2022-09-20T09:33:25;16.94;68.17
66144;SHT31;52947;50.842;6.084;2022-09-20T09:35:56;17.76;66.37
66144;SHT31;52947;50.842;6.084;2022-09-20T09:38:30;18.51;65.88
66144;SHT31;52947;50.842;6.084;2022-09-20T09:41:00;18.64;64.26
66144;SHT31;52947;50.842;6.084;2022-09-20T09:43:30;19.16;63.74
66144;SHT31;52947;50.842;6.084;2022-09-20T09:46:24;18.64;63.16
66144;SHT31;52947;50.842;6.084;2022-09-20T09:49:07;18.91;63.05
66144;SHT31;52947;50.842;6.084;2022-09-20T09:51:38;19.32;62.30
66144;SHT31;52947;50.842;6.084;2022-09-20T09:54:14;19.08;62.30
66144;SHT31;52947;50.842;6.084;2022-09-20T09:56:53;18.51;63.73
66144;SHT31;52947;50.842;6.084;2022-09-20T09:59:36;18.24;64.11
66144;SHT31;52947;50.842;6.084;2022-09-20T10:02:28;18.38;64.67
66144;SHT31;52947;50.842;6.084;2022-09-20T10:05:02;17.90;64.77
66144;SHT31;52947;50.842;6.084;2022-09-20T10:07:39;18.16;64.19
66144;SHT31;52947;50.842;6.084;2022-09-20T10:10:20;18.50;63.77
66144;SHT31;52947;50.842;6.084;2022-09-20T10:12:59;18.98;61.86
66144;SHT31;52947;50.842;6.084;2022-09-20T10:15:38;18.61;62.94
66144;SHT31;52947;50.842;6.084;2022-09-20T10:18:27;18.82;61.65
66144;SHT31;52947;50.842;6.084;2022-09-20T10:21:05;19.02;62.15
66144;SHT31;52947;50.842;6.084;2022-09-20T10:23:44;19.73;61.21
66144;SHT31;52947;50.842;6.084;2022-09-20T10:26:41;19.71;59.53
66144;SHT31;52947;50.842;6.084;2022-09-20T10:29:22;19.39;60.78
66144;SHT31;52947;50.842;6.084;2022-09-20T10:32:02;19.78;60.13
66144;SHT31;52947;50.842;6.084;2022-09-20T10:34:48;19.83;60.24
66144;SHT31;52947;50.842;6.084;2022-09-20T10:37:26;20.49;58.85
66144;SHT31;52947;50.842;6.084;2022-09-20T10:40:03;21.40;53.05
66144;SHT31;52947;50.842;6.084;2022-09-20T10:42:40;19.49;58.11
66144;SHT31;52947;50.842;6.084;2022-09-20T10:45:35;19.62;58.32
66144;SHT31;52947;50.842;6.084;2022-09-20T10:48:31;21.94;52.07
66144;SHT31;52947;50.842;6.084;2022-09-20T10:51:03;23.39;50.69
66144;SHT31;52947;50.842;6.084;2022-09-20T10:53:38;23.86;48.85
66144;SHT31;52947;50.842;6.084;2022-09-20T10:56:20;24.53;43.81
66144;SHT31;52947;50.842;6.084;2022-09-20T10:59:23;23.93;45.49
66144;SHT31;52947;50.842;6.084;2022-09-20T11:02:11;22.36;51.13
66144;SHT31;52947;50.842;6.084;2022-09-20T11:04:56;21.77;52.54
66144;SHT31;52947;50.842;6.084;2022-09-20T11:07:36;22.56;46.35
66144;SHT31;52947;50.842;6.084;2022-09-20T11:10:14;22.40;48.48
66144;SHT31;52947;50.842;6.084;2022-09-20T11:12:46;22.33;50.20
66144;SHT31;52947;50.842;6.084;2022-09-20T11:15:21;21.44;49.27
66144;SHT31;52947;50.842;6.084;2022-09-20T11:17:58;20.32;52.12
66144;SHT31;52947;50.842;6.084;2022-09-20T11:20:29;20.08;53.07
66144;SHT31;52947;50.842;6.084;2022-09-20T11:23:01;20.48;53.85
66144;SHT31;52947;50.842;6.084;2022-09-20T11:25:33;20.49;53.99
66144;SHT31;52947;50.842;6.084;2022-09-20T11:28:10;21.44;52.53
66144;SHT31;52947;50.842;6.084;2022-09-20T11:30:43;23.00;48.00
66144;SHT31;52947;50.842;6.084;2022-09-20T11:33:21;23.55;48.26
66144;SHT31;52947;50.842;6.084;2022-09-20T11:35:53;24.00;47.90
66144;SHT31;52947;50.842;6.084;2022-09-20T11:38:25;23.29;46.97
66144;SHT31;52947;50.842;6.084;2022-09-20T11:40:56;24.54;46.51
66144;SHT31;52947;50.842;6.084;2022-09-20T11:43:26;24.92;44.23
66144;SHT31;52947;50.842;6.084;2022-09-20T11:45:59;25.20;42.63
66144;SHT31;52947;50.842;6.084;2022-09-20T11:48:32;25.67;42.81
66144;SHT31;52947;50.842;6.084;2022-09-20T11:51:27;24.99;44.52
66144;SHT31;52947;50.842;6.084;2022-09-20T11:54:28;23.95;45.53
66144;SHT31;52947;50.842;6.084;2022-09-20T11:56:57;22.33;46.74
66144;SHT31;52947;50.842;6.084;2022-09-20T11:59:29;21.16;51.66
66144;SHT31;52947;50.842;6.084;2022-09-20T12:02:01;20.18;53.35
66144;SHT31;52947;50.842;6.084;2022-09-20T12:04:33;19.08;55.04
66144;SHT31;52947;50.842;6.084;2022-09-20T12:07:05;18.65;55.97
66144;SHT31;52947;50.842;6.084;2022-09-20T12:09:41;18.31;58.16
66144;SHT31;52947;50.842;6.084;2022-09-20T12:12:15;17.78;58.05
66144;SHT31;52947;50.842;6.084;2022-09-20T12:14:52;17.66;59.99
66144;SHT31;52947;50.842;6.084;2022-09-20T12:21:11;17.04;58.81
66144;SHT31;52947;50.842;6.084;2022-09-20T12:24:18;16.73;60.08
66144;SHT31;52947;50.842;6.084;2022-09-20T12:26:49;16.67;61.80
66144;SHT31;52947;50.842;6.084;2022-09-20T12:29:52;16.55;60.38
66144;SHT31;52947;50.842;6.084;2022-09-20T12:32:49;16.28;61.15
66144;SHT31;52947;50.842;6.084;2022-09-20T12:38:32;15.81;62.82
66144;SHT31;52947;50.842;6.084;2022-09-20T12:41:04;15.64;63.90
66144;SHT31;52947;50.842;6.084;2022-09-20T12:43:35;15.59;64.88
66144;SHT31;52947;50.842;6.084;2022-09-20T12:46:04;15.53;65.12
66144;SHT31;52947;50.842;6.084;2022-09-20T12:48:37;15.31;65.98
66144;SHT31;52947;50.842;6.084;2022-09-20T12:51:18;15.17;65.15
66144;SHT31;52947;50.842;6.084;2022-09-20T12:54:06;14.83;67.27
66144;SHT31;52947;50.842;6.084;2022-09-20T12:56:37;15.07;66.28
66144;SHT31;52947;50.842;6.084;2022-09-20T12:59:19;14.85;66.62
66144;SHT31;52947;50.842;6.084;2022-09-20T13:01:48;15.02;65.62
66144;SHT31;52947;50.842;6.084;2022-09-20T13:04:50;15.30;67.44
66144;SHT31;52947;50.842;6.084;2022-09-20T13:07:32;15.37;66.96
66144;SHT31;52947;50.842;6.084;2022-09-20T13:10:19;15.48;67.01
66144;SHT31;52947;50.842;6.084;2022-09-20T13:12:51;15.51;68.19
66144;SHT31;52947;50.842;6.084;2022-09-20T13:15:21;15.53;66.51
66144;SHT31;52947;50.842;6.084;2022-09-20T13:17:52;15.24;66.33
66144;SHT31;52947;50.842;6.084;2022-09-20T13:20:23;15.33;66.65
66144;SHT31;52947;50.842;6.084;2022-09-20T13:22:52;15.22;66.15
66144;SHT31;52947;50.842;6.084;2022-09-20T13:25:27;15.26;66.53
66144;SHT31;52947;50.842;6.084;2022-09-20T13:28:03;15.24;66.32
66144;SHT31;52947;50.842;6.084;2022-09-20T13:30:33;15.08;66.96
66144;SHT31;52947;50.842;6.084;2022-09-20T13:33:14;15.27;66.84
66144;SHT31;52947;50.842;6.084;2022-09-20T13:35:44;15.23;67.35
66144;SHT31;52947;50.842;6.084;2022-09-20T13:38:16;15.40;66.26
66144;SHT31;52947;50.842;6.084;2022-09-20T13:40:49;15.57;65.76
66144;SHT31;52947;50.842;6.084;2022-09-20T13:43:28;15.77;65.26
66144;SHT31;52947;50.842;6.084;2022-09-20T13:45:59;16.02;65.25
66144;SHT31;52947;50.842;6.084;2022-09-20T13:48:28;16.01;64.46
66144;SHT31;52947;50.842;6.084;2022-09-20T13:50:57;16.16;64.51
66144;SHT31;52947;50.842;6.084;2022-09-20T13:53:26;16.25;64.97
66144;SHT31;52947;50.842;6.084;2022-09-20T13:56:15;16.36;64.36
66144;SHT31;52947;50.842;6.084;2022-09-20T13:58:45;16.57;63.49
66144;SHT31;52947;50.842;6.084;2022-09-20T14:01:21;16.05;64.72
66144;SHT31;52947;50.842;6.084;2022-09-20T14:03:51;16.10;64.98
66144;SHT31;52947;50.842;6.084;2022-09-20T14:06:23;15.92;65.01
66144;SHT31;52947;50.842;6.084;2022-09-20T14:08:53;15.99;65.12
66144;SHT31;52947;50.842;6.084;2022-09-20T14:11:24;16.20;63.97
66144;SHT31;52947;50.842;6.084;2022-09-20T14:13:54;16.15;64.31
66144;SHT31;52947;50.842;6.084;2022-09-20T14:16:27;16.59;63.56
66144;SHT31;52947;50.842;6.084;2022-09-20T14:18:56;16.67;63.44
66144;SHT31;52947;50.842;6.084;2022-09-20T14:21:24;16.83;62.08
66144;SHT31;52947;50.842;6.084;2022-09-20T14:23:54;16.94;62.16
66144;SHT31;52947;50.842;6.084;2022-09-20T14:26:26;16.95;62.34
66144;SHT31;52947;50.842;6.084;2022-09-20T14:28:55;17.03;61.94
66144;SHT31;52947;50.842;6.084;2022-09-20T14:31:25;16.95;61.40
66144;SHT31;52947;50.842;6.084;2022-09-20T14:33:56;16.18;62.04
66144;SHT31;52947;50.842;6.084;2022-09-20T14:36:27;16.09;63.86
66144;SHT31;52947;50.842;6.084;2022-09-20T14:38:57;16.29;63.01
66144;SHT31;52947;50.842;6.084;2022-09-20T14:41:33;16.20;63.34
66144;SHT31;52947;50.842;6.084;2022-09-20T14:44:02;16.36;62.53
66144;SHT31;52947;50.842;6.084;2022-09-20T14:46:33;16.23;61.75
66144;SHT31;52947;50.842;6.084;2022-09-20T14:49:28;16.32;61.70
66144;SHT31;52947;50.842;6.084;2022-09-20T14:55:16;16.43;61.03
66144;SHT31;52947;50.842;6.084;2022-09-20T14:57:47;16.26;61.19
66144;SHT31;52947;50.842;6.084;2022-09-20T15:00:16;16.33;60.80
66144;SHT31;52947;50.842;6.084;2022-09-20T15:02:45;16.30;61.09
66144;SHT31;52947;50.842;6.084;2022-09-20T15:05:19;15.85;62.47
66144;SHT31;52947;50.842;6.084;2022-09-20T15:07:49;16.04;62.70
66144;SHT31;52947;50.842;6.084;2022-09-20T15:10:17;15.98;61.59
66144;SHT31;52947;50.842;6.084;2022-09-20T15:12:46;16.06;62.22
66144;SHT31;52947;50.842;6.084;2022-09-20T15:15:15;15.99;62.64
66144;SHT31;52947;50.842;6.084;2022-09-20T15:17:45;15.95;62.61
66144;SHT31;52947;50.842;6.084;2022-09-20T15:20:16;16.04;62.32
66144;SHT31;52947;50.842;6.084;2022-09-20T15:22:49;15.91;61.91
66144;SHT31;52947;50.842;6.084;2022-09-20T15:25:20;16.05;62.19
66144;SHT31;52947;50.842;6.084;2022-09-20T15:27:49;15.97;61.70
66144;SHT31;52947;50.842;6.084;2022-09-20T15:30:18;15.88;62.44
66144;SHT31;52947;50.842;6.084;2022-09-20T15:32:46;15.82;62.57
66144;SHT31;52947;50.842;6.084;2022-09-20T15:35:15;15.87;62.95
66144;SHT31;52947;50.842;6.084;2022-09-20T15:37:43;15.82;63.12
66144;SHT31;52947;50.842;6.084;2022-09-20T15:40:11;15.79;63.43
66144;SHT31;52947;50.842;6.084;2022-09-20T15:42:39;15.62;63.06
66144;SHT31;52947;50.842;6.084;2022-09-20T15:45:10;15.47;63.40
66144;SHT31;52947;50.842;6.084;2022-09-20T15:47:39;15.31;64.13
66144;SHT31;52947;50.842;6.084;2022-09-20T15:50:08;15.23;65.35
66144;SHT31;52947;50.842;6.084;2022-09-20T15:52:37;15.31;66.33
66144;SHT31;52947;50.842;6.084;2022-09-20T15:55:07;15.20;67.27
66144;SHT31;52947;50.842;6.084;2022-09-20T15:57:35;15.11;67.51
66144;SHT31;52947;50.842;6.084;2022-09-20T16:00:06;14.99;66.98
66144;SHT31;52947;50.842;6.084;2022-09-20T16:02:35;14.97;66.94
66144;SHT31;52947;50.842;6.084;2022-09-20T16:05:04;14.90;67.52
66144;SHT31;52947;50.842;6.084;2022-09-20T16:07:32;14.89;68.13
66144;SHT31;52947;50.842;6.084;2022-09-20T16:09:59;14.80;68.02
66144;SHT31;52947;50.842;6.084;2022-09-20T16:12:27;14.86;67.95
66144;SHT31;52947;50.842;6.084;2022-09-20T16:14:55;14.87;68.33
66144;SHT31;52947;50.842;6.084;2022-09-20T16:17:23;14.75;68.40
66144;SHT31;52947;50.842;6.084;2022-09-20T16:20:12;14.72;68.57
66144;SHT31;52947;50.842;6.084;2022-09-20T16:22:39;14.68;69.00
66144;SHT31;52947;50.842;6.084;2022-09-20T16:25:07;14.55;69.73
66144;SHT31;52947;50.842;6.084;2022-09-20T16:27:35;14.56;69.64
66144;SHT31;52947;50.842;6.084;2022-09-20T16:30:03;14.46;69.88
66144;SHT31;52947;50.842;6.084;2022-09-20T16:32:31;14.32;70.51
66144;SHT31;52947;50.842;6.084;2022-09-20T16:34:59;14.22;71.25
66144;SHT31;52947;50.842;6.084;2022-09-20T16:37:30;14.25;70.88
66144;SHT31;52947;50.842;6.084;2022-09-20T16:39:58;14.15;70.66
66144;SHT31;52947;50.842;6.084;2022-09-20T16:42:26;14.17;70.85
66144;SHT31;52947;50.842;6.084;2022-09-20T16:44:54;14.07;71.23
66144;SHT31;52947;50.842;6.084;2022-09-20T16:47:23;14.05;71.09
66144;SHT31;52947;50.842;6.084;2022-09-20T16:49:51;14.07;71.34
66144;SHT31;52947;50.842;6.084;2022-09-20T16:52:20;14.05;71.81
66144;SHT31;52947;50.842;6.084;2022-09-20T16:54:49;14.10;71.34
66144;SHT31;52947;50.842;6.084;2022-09-20T16:57:17;14.03;71.66
66144;SHT31;52947;50.842;6.084;2022-09-20T16:59:45;13.98;71.68
66144;SHT31;52947;50.842;6.084;2022-09-20T17:02:13;13.95;72.02